Time;durP1;ratioP1;P1;durP2;ratioP2;P2;SDS_P1;SDS_P2;PMS_P1;PMS_P2;Temp;Humidity;BMP_temperature;BMP_pressure;BME280_temperature;BME280_humidity;BME280_pressure;Samples;Min_cycle;Max_cycle;Signal;HPM_P1;HPM_P2
2022/02/19 00:00:56;;;;;;;8.03;5.83;;;;;;;5.94;60.18;94971.00;5084541;28;20872;-81
2022/02/19 00:03:23;;;;;;;14.43;6.23;;;;;;;5.93;60.89;94980.59;5093265;28;20438;-82
2022/02/19 00:05:50;;;;;;;12.77;7.53;;;;;;;5.89;61.00;94984.28;5093169;28;20483;-82
2022/02/19 00:08:17;;;;;;;13.47;7.30;;;;;;;5.86;60.21;94987.94;5093323;28;20455;-81
2022/02/19 00:10:46;;;;;;;8.90;5.80;;;;;;;5.86;61.29;94987.09;5092816;28;20459;-81
2022/02/19 00:13:13;;;;;;;12.70;6.47;;;;;;;5.74;61.07;94987.88;5093023;28;21009;-81
2022/02/19 00:15:40;;;;;;;15.27;7.37;;;;;;;5.67;61.73;95005.66;5091846;28;20450;-82
2022/02/19 00:18:07;;;;;;;16.83;9.10;;;;;;;5.65;61.90;95010.13;5092745;28;20436;-82
2022/02/19 00:20:33;;;;;;;16.00;8.07;;;;;;;5.66;62.34;95022.22;5093377;28;20459;-82
2022/02/19 00:23:01;;;;;;;17.87;9.70;;;;;;;5.64;61.94;95026.69;5092802;28;20455;-81
2022/02/19 00:25:28;;;;;;;23.30;9.77;;;;;;;5.60;62.70;95025.22;5092774;28;20484;-81
2022/02/19 00:27:56;;;;;;;13.13;9.00;;;;;;;5.47;62.44;95027.72;5092717;28;20452;-81
2022/02/19 00:30:23;;;;;;;19.87;10.60;;;;;;;5.44;62.85;95027.94;5092644;28;20475;-81
2022/02/19 00:32:50;;;;;;;24.83;11.03;;;;;;;5.38;63.23;95024.88;5093026;28;20440;-82
2022/02/19 00:35:18;;;;;;;16.73;9.57;;;;;;;5.25;63.50;95017.03;5092737;28;20937;-81
2022/02/19 00:37:45;;;;;;;19.67;13.70;;;;;;;5.22;63.02;95030.22;5092635;28;20440;-81
2022/02/19 00:40:13;;;;;;;25.50;14.33;;;;;;;5.15;62.74;95026.31;5092666;28;20969;-82
2022/02/19 00:42:40;;;;;;;24.37;13.90;;;;;;;5.09;63.62;95024.06;5056686;28;20443;-81
2022/02/19 00:45:09;;;;;;;29.80;14.23;;;;;;;5.07;63.63;95018.13;5092357;28;20490;-82
2022/02/19 00:47:36;;;;;;;22.80;12.63;;;;;;;5.05;63.76;95025.19;5092374;28;20463;-82
2022/02/19 00:50:03;;;;;;;28.30;11.63;;;;;;;4.98;64.31;95030.78;5092753;28;20451;-81
2022/02/19 00:52:30;;;;;;;15.00;6.87;;;;;;;4.95;64.54;95035.34;5092514;28;20447;-81
2022/02/19 00:54:57;;;;;;;10.83;5.60;;;;;;;4.97;64.38;95023.06;5092221;28;20448;-81
2022/02/19 00:57:24;;;;;;;8.93;5.03;;;;;;;4.93;64.25;95017.22;5092649;28;20454;-81
2022/02/19 00:59:51;;;;;;;8.70;5.17;;;;;;;4.87;64.77;95006.34;5092182;28;20451;-81
2022/02/19 01:02:19;;;;;;;8.37;4.33;;;;;;;4.86;65.15;95013.31;5092428;28;20440;-81
2022/02/19 01:04:46;;;;;;;8.70;6.27;;;;;;;4.86;64.49;95005.50;5092074;28;20483;-82
2022/02/19 01:07:13;;;;;;;13.73;5.87;;;;;;;4.91;64.37;95008.66;5056646;28;20443;-81
2022/02/19 01:09:40;;;;;;;10.57;4.23;;;;;;;4.93;65.27;94995.59;5092331;28;20428;-81
2022/02/19 01:12:07;;;;;;;7.23;3.37;;;;;;;4.92;64.15;94986.97;5092118;28;20447;-81
2022/02/19 01:14:34;;;;;;;6.70;4.10;;;;;;;4.97;64.75;94987.50;5092435;28;20456;-81
2022/02/19 01:17:01;;;;;;;9.70;4.40;;;;;;;5.02;64.06;94981.19;5056916;28;20473;-81
2022/02/19 01:19:29;;;;;;;5.57;3.10;;;;;;;5.02;64.43;94982.03;5092065;28;20937;-81
2022/02/19 01:21:57;;;;;;;10.00;4.93;;;;;;;5.02;63.85;94986.38;5092079;28;20476;-82
2022/02/19 01:24:23;;;;;;;8.13;4.47;;;;;;;5.03;64.27;94988.06;5092019;28;20541;-81
2022/02/19 01:26:51;;;;;;;7.50;3.93;;;;;;;5.06;64.08;94987.84;5094043;28;20440;-81
2022/02/19 01:29:18;;;;;;;12.60;4.83;;;;;;;5.07;63.39;94987.75;5096603;28;20456;-81
2022/02/19 01:31:45;;;;;;;9.37;4.60;;;;;;;5.05;63.82;94984.44;5096412;28;20443;-81
2022/02/19 01:34:11;;;;;;;8.10;4.50;;;;;;;5.07;63.67;94987.75;5096218;28;20454;-81
2022/02/19 01:36:40;;;;;;;6.67;3.90;;;;;;;5.04;64.22;94981.91;5096264;28;20447;-81
2022/02/19 01:39:07;;;;;;;3.83;3.43;;;;;;;5.06;64.22;94982.66;5095711;28;20456;-81
2022/02/19 01:41:34;;;;;;;7.17;4.00;;;;;;;5.11;63.66;94980.59;5095974;28;20527;-81
2022/02/19 01:44:06;;;;;;;7.33;4.87;;;;;;;5.08;64.26;94975.59;5096023;28;20455;-81
2022/02/19 01:46:32;;;;;;;18.00;5.77;;;;;;;5.06;63.94;94980.06;5096022;28;20864;-82
2022/02/19 01:48:59;;;;;;;9.73;5.67;;;;;;;5.03;64.52;94980.25;5095780;28;20501;-81
2022/02/19 01:51:30;;;;;;;6.00;4.43;;;;;;;5.02;64.81;94986.38;5096227;28;20448;-81
2022/02/19 01:54:01;;;;;;;5.83;4.57;;;;;;;4.95;64.66;94975.53;5095397;28;20447;-81
2022/02/19 01:56:29;;;;;;;9.70;5.03;;;;;;;4.94;64.51;94979.06;5095710;28;20431;-81
2022/02/19 01:58:57;;;;;;;11.50;4.67;;;;;;;4.93;64.61;94965.22;5095896;28;20439;-81
2022/02/19 02:01:23;;;;;;;6.10;4.30;;;;;;;4.90;65.20;94970.59;5095371;28;20470;-79
2022/02/19 02:03:50;;;;;;;10.67;3.80;;;;;;;4.92;64.96;94973.97;5095461;28;20993;-81
2022/02/19 02:06:18;;;;;;;4.77;4.07;;;;;;;4.92;64.89;94965.31;5095372;28;20486;-81
2022/02/19 02:08:47;;;;;;;8.43;4.13;;;;;;;4.91;65.43;94961.84;5096055;28;20444;-81
2022/02/19 02:11:16;;;;;;;7.60;4.00;;;;;;;4.95;65.13;94965.13;5095996;28;20919;-80
2022/02/19 02:13:43;;;;;;;7.47;4.50;;;;;;;4.92;64.81;94962.72;5060362;28;20432;-84
2022/02/19 02:16:10;;;;;;;11.83;4.50;;;;;;;4.87;65.34;94960.38;5096070;28;20474;-81
2022/02/19 02:18:37;;;;;;;10.20;3.73;;;;;;;4.87;65.94;94973.38;5095222;28;20428;-82
2022/02/19 02:21:04;;;;;;;6.83;4.03;;;;;;;4.87;65.49;94975.97;5095206;28;20446;-82
2022/02/19 02:23:32;;;;;;;8.50;4.70;;;;;;;4.86;65.73;94974.31;5095264;28;20452;-82
2022/02/19 02:26:01;;;;;;;7.83;4.70;;;;;;;4.79;65.18;94967.81;5094944;28;20475;-83
2022/02/19 02:28:28;;;;;;;8.43;4.33;;;;;;;4.84;64.92;94973.56;5094730;28;20443;-83
2022/02/19 02:30:55;;;;;;;8.57;4.33;;;;;;;4.84;65.44;94975.34;5094857;28;20447;-83
2022/02/19 02:33:23;;;;;;;9.83;4.33;;;;;;;4.88;65.05;94969.00;5095164;28;20474;-83
2022/02/19 02:35:51;;;;;;;7.73;4.97;;;;;;;4.94;65.41;94987.69;5095442;28;20518;-82
2022/02/19 02:38:18;;;;;;;6.07;4.47;;;;;;;4.96;64.77;94985.84;5058180;28;20511;-82
2022/02/19 02:40:46;;;;;;;10.90;5.50;;;;;;;4.96;63.97;94988.44;5094798;28;20451;-83
2022/02/19 02:43:13;;;;;;;6.30;4.77;;;;;;;4.91;64.17;94979.22;5095186;28;20440;-82
2022/02/19 02:45:40;;;;;;;11.87;6.10;;;;;;;4.90;65.16;94982.75;5094732;28;20849;-83
2022/02/19 02:48:07;;;;;;;19.67;5.50;;;;;;;4.88;65.16;94982.84;5094785;28;20529;-83
2022/02/19 02:50:34;;;;;;;8.63;5.37;;;;;;;4.82;64.34;94978.03;5094956;28;20440;-82
2022/02/19 02:53:01;;;;;;;14.97;5.90;;;;;;;4.77;65.34;94979.25;5094797;28;20981;-82
2022/02/19 02:55:28;;;;;;;7.87;5.00;;;;;;;4.76;65.03;94988.81;5095156;28;20448;-83
2022/02/19 02:57:56;;;;;;;6.30;5.00;;;;;;;4.75;65.07;94986.31;5094667;28;20457;-83
2022/02/19 03:00:24;;;;;;;10.97;5.30;;;;;;;4.74;64.83;94995.88;5094557;28;20479;-81
2022/02/19 03:02:51;;;;;;;9.87;5.33;;;;;;;4.70;65.31;94977.94;5094036;28;20481;-82
2022/02/19 03:05:18;;;;;;;11.37;4.87;;;;;;;4.68;65.40;94978.03;5094189;28;20494;-82
2022/02/19 03:07:45;;;;;;;6.43;5.00;;;;;;;4.64;65.38;94979.16;5094876;28;20451;-82
2022/02/19 03:10:16;;;;;;;6.27;4.50;;;;;;;4.62;65.59;94975.78;5094410;28;20448;-82
2022/02/19 03:12:43;;;;;;;7.97;4.93;;;;;;;4.60;66.08;94988.88;5094517;28;20860;-82
2022/02/19 03:15:15;;;;;;;10.47;5.10;;;;;;;4.58;65.86;94974.31;5093968;28;20451;-81
2022/02/19 03:17:44;;;;;;;7.80;5.30;;;;;;;4.60;65.99;94978.47;5094157;28;20461;-83
2022/02/19 03:20:15;;;;;;;11.17;5.40;;;;;;;4.62;66.89;94991.38;5094354;28;20448;-82
2022/02/19 03:22:42;;;;;;;8.33;4.47;;;;;;;4.59;66.64;94989.81;5093983;28;20443;-83
2022/02/19 03:25:09;;;;;;;7.57;5.27;;;;;;;4.58;66.23;94982.94;5093790;28;20565;-83
2022/02/19 03:27:36;;;;;;;16.83;6.20;;;;;;;4.52;67.33;94998.06;5058282;28;20455;-81
2022/02/19 03:30:03;;;;;;;9.70;5.43;;;;;;;4.47;66.96;94981.91;5094040;28;20948;-82
2022/02/19 03:32:32;;;;;;;7.00;4.73;;;;;;;4.46;66.70;94993.25;5093824;28;20451;-83
2022/02/19 03:34:59;;;;;;;8.03;5.37;;;;;;;4.43;66.50;95002.06;5058228;28;20936;-82
2022/02/19 03:37:26;;;;;;;8.03;4.60;;;;;;;4.33;67.40;94991.34;5093769;28;20451;-82
2022/02/19 03:39:53;;;;;;;9.77;4.60;;;;;;;4.31;67.39;94992.38;5093482;28;20510;-81
2022/02/19 03:42:20;;;;;;;8.17;4.33;;;;;;;4.31;67.07;95000.16;5093481;28;20964;-82
2022/02/19 03:44:47;;;;;;;7.73;5.40;;;;;;;4.38;66.85;95000.66;5093496;28;20546;-83
2022/02/19 03:47:14;;;;;;;10.30;6.27;;;;;;;4.36;67.27;95000.75;5094083;28;20446;-82
2022/02/19 03:49:42;;;;;;;8.63;4.90;;;;;;;4.32;67.22;94994.03;5093522;28;20446;-82
2022/02/19 03:52:09;;;;;;;9.37;4.60;;;;;;;4.26;68.82;94999.59;5093646;28;20457;-82
2022/02/19 03:54:36;;;;;;;12.53;5.57;;;;;;;4.25;67.49;95001.34;5093530;28;20461;-82
2022/02/19 03:57:03;;;;;;;9.27;5.70;;;;;;;4.20;68.21;94997.38;5093129;28;20457;-82
2022/02/19 03:59:30;;;;;;;13.43;6.20;;;;;;;4.12;67.70;94995.22;5093121;28;20446;-82
2022/02/19 04:01:57;;;;;;;8.17;5.20;;;;;;;4.10;68.45;95004.88;5092966;28;20481;-82
2022/02/19 04:04:24;;;;;;;12.70;5.50;;;;;;;4.09;68.60;94998.00;5093284;28;20454;-80
2022/02/19 04:06:52;;;;;;;7.10;4.87;;;;;;;4.12;68.38;94997.81;5093148;28;20484;-82
2022/02/19 04:09:19;;;;;;;7.83;5.07;;;;;;;4.12;68.98;95002.19;5093341;28;20474;-82
2022/02/19 04:11:46;;;;;;;6.77;4.53;;;;;;;4.16;68.66;94994.13;5092837;28;20446;-83
2022/02/19 04:14:13;;;;;;;11.17;4.77;;;;;;;4.19;68.38;94998.28;5093106;28;20453;-82
2022/02/19 04:16:40;;;;;;;5.80;3.93;;;;;;;4.11;67.68;94985.75;5057469;28;20938;-82
2022/02/19 04:19:07;;;;;;;7.40;4.50;;;;;;;4.15;68.38;94982.06;5093108;28;20462;-82
2022/02/19 04:21:34;;;;;;;6.33;4.80;;;;;;;4.14;68.97;94982.97;5093024;28;20447;-82
2022/02/19 04:24:02;;;;;;;8.83;4.70;;;;;;;4.12;68.24;94979.63;5092992;28;20484;-82
2022/02/19 04:26:29;;;;;;;5.93;4.97;;;;;;;4.12;68.15;94977.03;5092740;28;21011;-82
2022/02/19 04:28:56;;;;;;;11.67;4.63;;;;;;;4.08;68.64;94975.56;5092951;28;20443;-82
2022/02/19 04:31:23;;;;;;;5.03;4.23;;;;;;;4.01;68.73;94980.25;5093067;28;20447;-82
2022/02/19 04:33:50;;;;;;;9.47;4.47;;;;;;;4.05;69.41;94986.13;5040852;28;20439;-81
2022/02/19 04:36:17;;;;;;;6.40;4.50;;;;;;;4.05;68.71;94983.53;5092764;28;20454;-82
2022/02/19 04:38:44;;;;;;;12.00;4.17;;;;;;;4.08;68.97;94975.56;5092866;28;20542;-83
2022/02/19 04:41:12;;;;;;;6.03;4.70;;;;;;;4.09;68.99;94982.41;5093150;28;20431;-81
2022/02/19 04:43:39;;;;;;;7.40;4.77;;;;;;;4.12;68.98;94981.41;5092403;28;20446;-81
2022/02/19 04:46:06;;;;;;;5.47;4.20;;;;;;;4.15;68.29;94983.81;5092530;28;20494;-81
2022/02/19 04:48:33;;;;;;;8.73;4.27;;;;;;;4.18;68.62;94987.06;5093509;28;20988;-81
2022/02/19 04:51:00;;;;;;;7.53;4.47;;;;;;;4.20;68.05;94990.41;5093564;28;20446;-82
2022/02/19 04:53:27;;;;;;;4.87;4.00;;;;;;;4.18;68.90;94984.47;5093858;28;20454;-82
2022/02/19 04:55:54;;;;;;;9.63;4.40;;;;;;;4.08;68.07;94972.97;5094053;28;20447;-82
2022/02/19 04:58:22;;;;;;;6.40;4.27;;;;;;;4.13;68.81;94989.09;5093571;28;20439;-82
2022/02/19 05:00:49;;;;;;;11.40;4.97;;;;;;;4.07;69.18;94978.25;5093218;28;20488;-82
2022/02/19 05:03:16;;;;;;;6.20;4.13;;;;;;;4.08;69.16;94996.31;5093453;28;20443;-82
2022/02/19 05:05:42;;;;;;;7.73;5.00;;;;;;;4.06;68.71;94995.59;5041528;28;20486;-83
2022/02/19 05:08:09;;;;;;;7.57;5.37;;;;;;;3.99;69.34;94992.47;5093459;28;20435;-83
2022/02/19 05:10:36;;;;;;;7.27;4.83;;;;;;;3.93;68.35;94998.03;5093394;28;20435;-83
2022/02/19 05:13:03;;;;;;;8.87;6.13;;;;;;;3.95;69.13;95008.31;5093068;28;20443;-83
2022/02/19 05:15:31;;;;;;;7.40;5.83;;;;;;;3.90;69.38;95011.19;5074679;28;20795;-84
2022/02/19 05:18:01;;;;;;;14.90;8.30;;;;;;;3.88;69.36;95010.44;5093734;28;20450;-82
2022/02/19 05:20:28;;;;;;;12.50;7.73;;;;;;;3.79;69.01;95002.34;5074161;28;20461;-82
2022/02/19 05:22:56;;;;;;;9.50;8.33;;;;;;;3.76;69.73;95015.47;5073245;28;20488;-83
2022/02/19 05:25:23;;;;;;;13.57;9.77;;;;;;;3.76;69.25;95015.47;5072820;28;20436;-82
2022/02/19 05:27:50;;;;;;;20.27;13.63;;;;;;;3.79;69.96;95015.31;5073192;28;20456;-83
2022/02/19 05:30:17;;;;;;;22.23;12.87;;;;;;;3.70;70.70;95017.50;5090349;28;20450;-84
2022/02/19 05:32:45;;;;;;;20.93;13.57;;;;;;;3.82;71.30;95015.97;5093608;28;20434;-81
2022/02/19 05:35:12;;;;;;;20.07;13.40;;;;;;;4.12;70.02;95012.56;5093132;28;20443;-81
2022/02/19 05:37:39;;;;;;;23.80;12.47;;;;;;;4.54;68.76;95019.59;5093235;28;20455;-83
2022/02/19 05:40:07;;;;;;;21.33;11.40;;;;;;;5.26;66.53;95001.31;5093045;28;20822;-83
2022/02/19 05:42:34;;;;;;;20.37;11.10;;;;;;;6.08;63.42;95010.03;5093350;28;20440;-87
2022/02/19 05:45:01;;;;;;;20.10;10.57;;;;;;;6.97;59.68;94999.69;5093176;28;20432;-83
2022/02/19 05:47:28;;;;;;;17.97;10.93;;;;;;;7.89;56.18;94991.41;5092761;28;20828;-83
2022/02/19 05:49:58;;;;;;;23.53;11.47;;;;;;;8.88;53.84;95002.28;5092922;28;20435;-81
2022/02/19 05:52:25;;;;;;;18.77;11.20;;;;;;;9.69;50.42;94996.81;5093442;28;20448;-82
2022/02/19 05:54:53;;;;;;;16.53;10.20;;;;;;;10.46;48.30;95000.16;5093424;28;20429;-83
2022/02/19 05:57:20;;;;;;;24.00;11.57;;;;;;;10.89;46.60;94988.69;5093097;28;20448;-84
2022/02/19 05:59:47;;;;;;;24.40;13.90;;;;;;;11.46;44.74;94987.28;5092962;28;20442;-83
2022/02/19 06:02:14;;;;;;;26.77;14.73;;;;;;;11.75;44.21;94972.44;5041192;28;20436;-83
2022/02/19 06:04:41;;;;;;;34.43;15.47;;;;;;;11.90;43.90;94974.72;5092726;28;20451;-83
2022/02/19 06:07:09;;;;;;;24.17;13.00;;;;;;;11.93;42.53;94982.34;5056338;28;20484;-81
2022/02/19 06:09:36;;;;;;;27.10;13.63;;;;;;;11.64;43.39;94975.19;5092265;28;20446;-83
2022/02/19 06:12:03;;;;;;;27.90;12.97;;;;;;;11.98;43.36;94967.81;5092957;28;20451;-84
2022/02/19 06:14:30;;;;;;;23.67;12.00;;;;;;;12.08;43.46;94973.06;5095686;28;20440;-84
2022/02/19 06:16:57;;;;;;;21.20;12.23;;;;;;;12.36;42.24;94968.78;5044644;28;20444;-84
2022/02/19 06:19:24;;;;;;;21.27;11.47;;;;;;;12.52;41.59;94968.25;5096764;28;20432;-84
2022/02/19 06:21:51;;;;;;;19.20;14.20;;;;;;;12.57;41.85;94987.91;5096319;28;20447;-83
2022/02/19 06:24:19;;;;;;;34.83;14.27;;;;;;;11.77;42.07;94994.16;5096488;28;20442;-84
2022/02/19 06:26:46;;;;;;;22.73;14.10;;;;;;;11.36;43.95;94995.16;5096213;28;20470;-84
2022/02/19 06:29:13;;;;;;;23.07;12.63;;;;;;;10.98;43.87;95005.44;5061380;28;20444;-84
2022/02/19 06:31:40;;;;;;;21.33;13.20;;;;;;;10.52;44.77;95014.56;5096537;28;20510;-88
2022/02/19 06:34:07;;;;;;;30.37;15.47;;;;;;;10.03;46.02;95023.75;5097383;28;20953;-86
2022/02/19 06:36:34;;;;;;;54.17;17.83;;;;;;;9.39;47.75;95035.88;5096049;28;20439;-83
2022/02/19 06:39:01;;;;;;;32.83;16.13;;;;;;;8.99;49.44;95015.41;5096473;28;20452;-84
2022/02/19 06:41:29;;;;;;;24.27;16.10;;;;;;;9.02;49.44;95038.72;5096326;28;20435;-85
2022/02/19 06:54:01;;;;;;;23.57;16.77;;;;;;;10.02;48.61;95055.34;5075059;28;20440;-83
2022/02/19 06:56:30;;;;;;;29.13;18.83;;;;;;;10.47;47.34;95050.84;5076401;28;20446;-82
2022/02/19 06:58:59;;;;;;;27.80;17.70;;;;;;;10.73;46.56;95053.94;5075710;28;20455;-81
2022/02/19 07:01:26;;;;;;;24.00;16.83;;;;;;;10.76;45.76;95059.78;5075447;28;20460;-85
2022/02/19 07:13:59;;;;;;;27.67;14.33;;;;;;;10.93;45.28;95050.47;5075198;28;20428;-82
2022/02/19 07:16:26;;;;;;;25.00;13.20;;;;;;;10.92;46.28;95046.19;5075341;28;20946;-84
2022/02/19 07:18:53;;;;;;;31.90;14.50;;;;;;;10.95;46.04;95038.06;5074933;28;20435;-85
2022/02/19 07:21:20;;;;;;;27.27;12.83;;;;;;;10.94;45.79;95044.25;5024016;28;20808;-80
2022/02/19 07:23:47;;;;;;;23.43;12.83;;;;;;;10.85;45.75;95042.41;5074400;28;20792;-82
2022/02/19 07:26:14;;;;;;;23.50;12.50;;;;;;;10.91;46.60;95030.56;5074890;28;20472;-79
2022/02/19 07:28:41;;;;;;;23.03;15.50;;;;;;;11.05;45.38;95027.63;5039760;28;20506;-80
2022/02/19 07:31:09;;;;;;;30.70;16.67;;;;;;;11.07;44.75;95026.53;5075052;28;20437;-83
2022/02/19 07:33:36;;;;;;;24.27;14.80;;;;;;;11.04;45.89;95026.78;5074820;28;20464;-81
2022/02/19 07:36:03;;;;;;;27.93;14.70;;;;;;;10.95;46.33;95032.78;5074983;28;20437;-80
2022/02/19 07:38:30;;;;;;;32.33;13.77;;;;;;;10.90;45.73;95027.09;5074616;28;20455;-80
2022/02/19 07:40:57;;;;;;;29.17;13.90;;;;;;;10.91;44.56;95012.19;5074820;28;20484;-79
2022/02/19 07:43:24;;;;;;;24.10;12.37;;;;;;;10.74;45.71;95013.63;5074417;28;20425;-82
2022/02/19 07:45:51;;;;;;;31.30;15.10;;;;;;;10.44;46.15;95012.56;5074762;28;20437;-82
2022/02/19 08:00:00;;;;;;;27.57;15.07;;;;;;;9.92;47.50;95015.94;5074085;28;20510;-81
2022/02/19 08:09:11;;;;;;;41.23;17.30;;;;;;;9.90;49.23;95026.56;5073212;28;20517;-80
2022/02/19 08:11:38;;;;;;;26.67;14.53;;;;;;;9.97;48.76;95026.88;5074268;28;20927;-80
2022/02/19 08:14:05;;;;;;;22.40;13.87;;;;;;;9.98;48.49;95040.81;5074142;28;20428;-79
2022/02/19 08:16:33;;;;;;;21.37;12.80;;;;;;;10.12;47.20;95043.16;5078458;28;20456;-80
2022/02/19 08:19:00;;;;;;;26.50;15.17;;;;;;;10.28;47.36;95042.78;5093750;28;21205;-80
2022/02/19 08:21:27;;;;;;;31.20;13.63;;;;;;;10.43;47.76;95042.41;5058515;28;20436;-80
2022/02/19 08:23:54;;;;;;;22.60;13.37;;;;;;;10.58;47.42;95044.69;5094142;28;20445;-81
2022/02/19 08:26:24;;;;;;;34.00;13.27;;;;;;;10.75;47.20;95046.78;5094009;28;20502;-80
2022/02/19 08:28:51;;;;;;;31.77;12.17;;;;;;;10.93;48.88;95037.34;5093658;28;20454;-81
2022/02/19 08:31:18;;;;;;;23.73;11.83;;;;;;;11.09;45.54;95032.50;5093761;28;20428;-78
2022/02/19 08:33:45;;;;;;;16.00;10.93;;;;;;;11.09;44.50;95034.28;5094164;28;20439;-81
2022/02/19 08:36:12;;;;;;;21.80;10.40;;;;;;;10.99;45.01;95023.72;5093327;28;20455;-81
2022/02/19 08:38:39;;;;;;;23.43;10.03;;;;;;;11.06;52.89;95026.66;5094117;28;20443;-85
2022/02/19 08:41:06;;;;;;;21.20;10.97;;;;;;;11.11;46.81;95027.09;5058792;28;20826;-84
2022/02/19 08:43:35;;;;;;;13.87;8.83;;;;;;;11.18;44.99;95025.63;5093498;28;20452;-84
2022/02/19 08:46:02;;;;;;;11.93;7.47;;;;;;;11.20;42.98;95023.69;5073584;28;20436;-84
2022/02/19 08:48:30;;;;;;;12.10;6.90;;;;;;;11.25;42.68;95013.63;5092803;28;20475;-84
2022/02/19 08:50:59;;;;;;;20.53;8.40;;;;;;;11.39;43.03;95020.31;5073694;28;20428;-84
2022/02/19 08:53:26;;;;;;;25.50;8.20;;;;;;;11.45;43.70;95009.28;5092967;28;20533;-83
2022/02/19 08:55:53;;;;;;;12.07;8.13;;;;;;;11.70;43.71;95008.00;5093137;28;20906;-83
2022/02/19 08:58:21;;;;;;;19.33;7.20;;;;;;;12.03;42.55;95006.84;5041738;28;21010;-83
2022/02/19 09:00:50;;;;;;;12.93;7.70;;;;;;;12.38;41.36;95014.22;5092882;28;20485;-82
2022/02/19 09:03:17;;;;;;;18.17;8.70;;;;;;;12.65;40.90;95019.63;5093602;28;20439;-83
2022/02/19 09:05:44;;;;;;;13.60;7.80;;;;;;;12.72;39.58;95012.00;5057911;28;20439;-82
2022/02/19 09:08:11;;;;;;;15.47;6.70;;;;;;;12.67;39.62;95019.47;5093935;28;20474;-83
2022/02/19 09:10:38;;;;;;;15.83;9.20;;;;;;;12.65;39.75;95022.25;5042037;28;20463;-82
2022/02/19 09:13:05;;;;;;;13.43;7.73;;;;;;;12.64;39.10;95017.13;5093395;28;20448;-85
2022/02/19 09:15:32;;;;;;;16.50;8.03;;;;;;;12.61;39.81;95026.13;5093563;28;20436;-84
2022/02/19 09:18:01;;;;;;;14.47;7.30;;;;;;;12.68;40.11;95029.03;5093724;28;20452;-84
2022/02/19 09:20:27;;;;;;;15.57;8.63;;;;;;;12.63;42.57;95023.38;5092818;28;20455;-82
2022/02/19 09:22:54;;;;;;;12.60;7.83;;;;;;;12.77;41.44;95020.31;5092985;28;20538;-82
2022/02/19 09:25:21;;;;;;;20.60;7.40;;;;;;;12.89;41.55;95028.91;5093038;28;20938;-83
2022/02/19 09:27:49;;;;;;;9.33;6.70;;;;;;;12.83;40.97;95025.03;5093562;28;20487;-83
2022/02/19 09:30:16;;;;;;;17.63;9.03;;;;;;;12.92;39.56;95024.16;5041647;28;20451;-84
2022/02/19 09:32:43;;;;;;;11.47;6.53;;;;;;;12.71;38.75;95021.69;5093260;28;20507;-83
2022/02/19 09:35:12;;;;;;;11.80;5.03;;;;;;;12.67;38.91;95008.94;5093633;28;20482;-82
2022/02/19 09:37:39;;;;;;;8.00;4.17;;;;;;;12.66;39.50;95015.19;5093814;28;20439;-83
2022/02/19 09:40:08;;;;;;;9.00;5.67;;;;;;;12.58;39.70;95021.16;5093842;28;20427;-84
2022/02/19 09:42:37;;;;;;;9.77;6.10;;;;;;;12.22;40.00;95020.03;5092459;28;20444;-85
2022/02/19 09:45:04;;;;;;;21.23;7.40;;;;;;;12.13;40.78;95027.91;5092048;28;20451;-85
2022/02/19 09:47:32;;;;;;;19.13;6.80;;;;;;;11.94;41.22;95039.22;5092980;28;20479;-84
2022/02/19 09:50:00;;;;;;;18.40;6.90;;;;;;;11.94;42.29;95031.34;5096015;28;20497;-84
2022/02/19 09:52:28;;;;;;;14.33;7.50;;;;;;;11.64;42.36;95043.53;5097215;28;20451;-86
2022/02/19 09:54:58;;;;;;;14.90;7.43;;;;;;;11.60;43.72;95039.50;5096768;28;21009;-84
2022/02/19 09:57:25;;;;;;;15.53;7.77;;;;;;;11.67;43.45;95045.91;5097213;28;20443;-85
2022/02/19 09:59:52;;;;;;;17.73;8.07;;;;;;;11.71;42.94;95044.66;5096913;28;20447;-85
2022/02/19 10:02:30;;;;;;;14.53;8.43;;;;;;;11.68;43.63;95050.19;5097646;28;20515;-85
2022/02/19 10:05:10;;;;;;;19.77;9.50;;;;;;;11.68;42.57;95044.09;5096812;28;20423;-85
2022/02/19 10:07:38;;;;;;;14.83;9.00;;;;;;;11.77;42.23;95040.66;5097179;28;20475;-83
2022/02/19 10:10:06;;;;;;;21.17;10.30;;;;;;;11.99;42.36;95044.91;5096501;28;20444;-83
2022/02/19 10:12:47;;;;;;;12.40;9.30;;;;;;;12.20;43.35;95040.41;5096535;28;20462;-83
2022/02/19 10:15:14;;;;;;;23.20;9.50;;;;;;;12.22;42.68;95035.00;5096868;28;20443;-83
2022/02/19 10:17:41;;;;;;;16.87;7.10;;;;;;;12.31;41.25;95035.00;5097022;28;20459;-84
2022/02/19 10:20:14;;;;;;;18.27;7.80;;;;;;;12.49;41.85;95040.41;5096593;28;20455;-84
2022/02/19 10:22:44;;;;;;;12.20;7.10;;;;;;;12.50;40.88;95034.19;5096322;28;20539;-85
2022/02/19 10:25:13;;;;;;;10.60;6.30;;;;;;;12.51;41.06;95022.69;5096147;28;20463;-87
2022/02/19 10:27:42;;;;;;;13.53;6.47;;;;;;;12.71;40.82;95026.13;5096182;28;20488;-85
2022/02/19 10:30:10;;;;;;;13.63;5.40;;;;;;;12.61;40.48;95017.41;5096809;28;20439;-84
2022/02/19 10:32:48;;;;;;;10.73;7.47;;;;;;;12.77;39.85;95008.97;5096685;28;20438;-86
2022/02/19 10:35:15;;;;;;;12.37;5.60;;;;;;;12.79;39.99;95004.38;5095951;28;20933;-81
2022/02/19 10:37:46;;;;;;;10.20;4.87;;;;;;;12.94;39.69;95006.41;5096303;28;20918;-83
2022/02/19 10:40:33;;;;;;;13.20;5.43;;;;;;;13.12;41.75;95010.97;5096193;28;20424;-83
2022/02/19 10:43:04;;;;;;;10.70;5.90;;;;;;;13.24;40.51;94996.69;5096755;28;20448;-88
2022/02/19 10:45:32;;;;;;;18.87;7.30;;;;;;;13.29;41.61;94997.91;5096690;28;20452;-88
2022/02/19 10:48:13;;;;;;;16.30;6.40;;;;;;;13.33;41.30;94987.94;5097616;28;20482;-88
2022/02/19 10:50:41;;;;;;;9.90;6.00;;;;;;;13.49;40.58;94980.22;5098217;28;20455;-88
2022/02/19 10:53:10;;;;;;;12.40;6.40;;;;;;;13.59;40.64;94967.00;5097868;28;20470;-92
2022/02/19 10:55:39;;;;;;;14.90;6.57;;;;;;;13.73;40.08;94963.03;5097074;28;20550;-89
2022/02/19 10:58:07;;;;;;;13.17;4.87;;;;;;;13.84;39.30;94960.19;5096871;28;20460;-90
2022/02/19 11:00:35;;;;;;;5.73;4.80;;;;;;;13.81;38.19;94947.28;5096738;28;20501;-87
2022/02/19 11:03:04;;;;;;;9.50;5.47;;;;;;;13.97;39.81;94957.19;5096366;28;20485;-83
2022/02/19 11:05:32;;;;;;;9.27;4.70;;;;;;;14.08;39.75;94955.16;5096676;28;20443;-88
2022/02/19 11:08:01;;;;;;;7.83;4.70;;;;;;;14.10;38.65;94953.22;5096572;28;20812;-84
2022/02/19 11:10:33;;;;;;;6.60;4.30;;;;;;;14.19;38.66;94954.13;5096379;28;20432;-91
2022/02/19 11:13:01;;;;;;;6.13;4.47;;;;;;;14.07;37.49;94952.69;5097086;28;20440;-92
2022/02/19 11:15:28;;;;;;;7.60;4.27;;;;;;;14.27;37.48;94948.94;5098278;28;20451;-96
2022/02/19 11:17:56;;;;;;;8.63;4.60;;;;;;;14.30;37.45;94948.63;5097827;28;20535;-88
2022/02/19 11:20:24;;;;;;;6.40;3.83;;;;;;;14.30;38.11;94922.22;5096204;28;20976;-89
2022/02/19 11:22:57;;;;;;;8.50;4.57;;;;;;;14.33;37.53;94921.91;5097528;28;20474;-89
2022/02/19 11:25:30;;;;;;;14.20;4.50;;;;;;;14.47;37.64;94933.78;5097247;28;20451;-89
2022/02/19 11:28:04;;;;;;;4.77;3.80;;;;;;;14.52;36.45;94926.25;5097205;28;20515;-87
2022/02/19 11:30:34;;;;;;;9.40;4.30;;;;;;;14.53;37.15;94919.97;5096897;28;20965;-89
2022/02/19 11:33:03;;;;;;;21.07;7.40;;;;;;;14.47;36.54;94913.50;5096660;28;20439;-88
2022/02/19 11:35:39;;;;;;;8.37;3.90;;;;;;;14.55;37.57;94915.38;5098196;28;20446;-94
2022/02/19 11:38:27;;;;;;;6.80;3.87;;;;;;;14.70;37.88;94911.16;5097973;28;20546;-89
2022/02/19 11:40:57;;;;;;;11.30;4.17;;;;;;;14.83;40.68;94901.03;5096984;28;20455;-88
2022/02/19 11:43:39;;;;;;;14.33;4.73;;;;;;;14.95;37.49;94900.75;5096786;28;20446;-86
2022/02/19 11:46:32;;;;;;;9.43;4.03;;;;;;;15.04;37.20;94894.56;5096784;28;20451;-88
2022/02/19 11:49:17;;;;;;;9.70;3.90;;;;;;;14.88;37.34;94896.13;5096542;28;20491;-85
2022/02/19 11:51:44;;;;;;;9.60;5.67;;;;;;;14.61;37.09;94890.97;5095893;28;20439;-89
2022/02/19 11:54:28;;;;;;;7.97;3.17;;;;;;;14.63;37.32;94869.69;5096709;28;20436;-91
2022/02/19 11:56:56;;;;;;;13.03;4.20;;;;;;;14.76;37.79;94875.41;5098099;28;20511;-92
2022/02/19 11:59:41;;;;;;;6.97;4.50;;;;;;;14.85;36.05;94872.66;5099025;28;20521;-93
2022/02/19 12:02:17;;;;;;;8.83;3.80;;;;;;;14.79;36.11;94873.28;5096409;28;20505;-88
2022/02/19 12:05:18;;;;;;;6.40;4.60;;;;;;;14.90;37.16;94856.31;5096970;28;20446;-93
2022/02/19 12:08:01;;;;;;;9.03;5.03;;;;;;;15.00;36.48;94856.19;5096151;28;20504;-87
2022/02/19 12:10:28;;;;;;;8.73;4.87;;;;;;;14.98;37.39;94860.81;5033193;28;21312;-90
2022/02/19 12:13:10;;;;;;;5.30;4.00;;;;;;;15.02;37.41;94855.03;5035442;28;20446;-91
2022/02/19 12:15:39;;;;;;;6.80;4.03;;;;;;;15.19;37.44;94851.50;5033704;28;20456;-88